Time;durP1;ratioP1;P1;durP2;ratioP2;P2;SDS_P1;SDS_P2;PMS_P1;PMS_P2;Temp;Humidity;BMP_temperature;BMP_pressure;BME280_temperature;BME280_humidity;BME280_pressure;Samples;Min_cycle;Max_cycle;Signal;HPM_P1;HPM_P2
2023/03/23 00:01:57;;;;;;;13.13;8.43;;;;;;;13.40;46.47;98711.06;5130626;28;20074;-69
2023/03/23 00:04:26;;;;;;;11.65;9.60;;;;;;;13.35;46.47;98700.78;5130472;28;20035;-69
2023/03/23 00:06:53;;;;;;;13.57;10.07;;;;;;;13.30;46.67;98707.44;5129071;28;20118;-70
2023/03/23 00:09:23;;;;;;;11.82;9.82;;;;;;;13.29;46.42;98703.06;5129020;28;20027;-70
2023/03/23 00:11:51;;;;;;;13.80;9.90;;;;;;;13.06;46.69;98672.91;5129851;28;20036;-70
2023/03/23 00:14:22;;;;;;;13.02;9.18;;;;;;;13.22;46.74;98704.50;5129794;28;20047;-70
2023/03/23 00:16:50;;;;;;;11.68;8.60;;;;;;;13.19;46.71;98705.59;5129971;28;20098;-70
2023/03/23 00:19:19;;;;;;;12.13;9.32;;;;;;;13.17;46.65;98702.19;5129026;28;20035;-70
2023/03/23 00:21:47;;;;;;;9.70;8.63;;;;;;;13.12;46.93;98707.88;5128768;28;20039;-70
2023/03/23 00:24:16;;;;;;;12.15;8.93;;;;;;;12.83;46.80;98653.34;5129491;28;20088;-70
2023/03/23 00:26:45;;;;;;;10.57;8.63;;;;;;;12.58;46.77;98629.56;5129674;28;20047;-70
2023/03/23 00:29:14;;;;;;;10.52;7.85;;;;;;;13.08;46.75;98695.75;5129556;27;20040;-70
2023/03/23 00:31:46;;;;;;;12.02;8.32;;;;;;;13.07;46.86;98699.38;5129471;28;20118;-70
2023/03/23 00:34:18;;;;;;;10.32;7.72;;;;;;;13.05;46.63;98706.63;5128506;28;20063;-70
2023/03/23 00:36:44;;;;;;;10.73;7.47;;;;;;;13.01;46.89;98704.31;5129443;28;20089;-69
2023/03/23 00:39:16;;;;;;;8.38;7.30;;;;;;;12.93;46.93;98699.56;5111794;28;20042;-69
2023/03/23 00:41:42;;;;;;;8.73;7.47;;;;;;;12.90;46.97;98699.81;5129560;28;20054;-69
2023/03/23 00:44:10;;;;;;;8.88;7.45;;;;;;;12.91;47.11;98698.00;5129287;28;20036;-69
2023/03/23 00:46:44;;;;;;;7.97;7.18;;;;;;;12.88;47.22;98700.88;5128360;28;20039;-69
2023/03/23 00:49:12;;;;;;;13.43;8.52;;;;;;;12.87;47.26;98697.38;5129113;28;20110;-69
2023/03/23 00:51:39;;;;;;;9.75;7.95;;;;;;;12.86;47.16;98698.34;5128524;28;20074;-70
2023/03/23 00:54:05;;;;;;;8.55;7.15;;;;;;;12.84;47.38;98695.78;5129570;28;20050;-70
2023/03/23 00:56:34;;;;;;;10.32;7.50;;;;;;;12.81;47.30;98692.50;5128116;28;20043;-71
2023/03/23 00:59:01;;;;;;;9.85;7.68;;;;;;;12.78;47.20;98690.94;5129162;28;20035;-70
2023/03/23 01:01:28;;;;;;;12.55;9.02;;;;;;;12.76;47.58;98687.53;5129160;28;20039;-69
2023/03/23 01:04:00;;;;;;;8.68;7.78;;;;;;;12.74;47.36;98688.63;5128275;28;20039;-70
2023/03/23 01:06:28;;;;;;;8.95;7.80;;;;;;;12.70;47.59;98685.34;5129396;28;20044;-70
2023/03/23 01:08:56;;;;;;;9.45;7.47;;;;;;;12.70;47.73;98681.84;5129010;28;20044;-70
2023/03/23 01:11:23;;;;;;;9.18;7.60;;;;;;;11.89;47.39;98547.81;5127649;28;20081;-69
2023/03/23 01:13:51;;;;;;;10.27;8.27;;;;;;;12.69;47.49;98686.31;5127746;28;20035;-70
2023/03/23 01:16:20;;;;;;;9.73;8.43;;;;;;;12.65;47.80;98683.97;5127766;28;20211;-70
2023/03/23 01:18:47;;;;;;;10.25;8.48;;;;;;;12.60;47.76;98678.16;5127713;28;20039;-70
2023/03/23 01:21:15;;;;;;;10.80;8.55;;;;;;;12.39;47.90;98662.84;5129030;28;20042;-70
2023/03/23 01:23:42;;;;;;;9.90;8.00;;;;;;;12.53;48.04;98688.41;5128474;28;20054;-70
2023/03/23 01:26:11;;;;;;;9.25;7.00;;;;;;;12.51;47.97;98680.53;5127593;28;20077;-70
2023/03/23 01:28:39;;;;;;;12.13;8.07;;;;;;;12.49;48.08;98679.81;5128403;28;20255;-70
2023/03/23 01:31:11;;;;;;;7.80;6.90;;;;;;;12.46;48.61;98689.81;5127464;28;20124;-70
2023/03/23 01:33:39;;;;;;;10.57;6.18;;;;;;;12.28;48.31;98669.91;5128285;28;20062;-70
2023/03/23 01:36:09;;;;;;;7.68;6.25;;;;;;;12.43;48.13;98679.41;5128226;28;20040;-70
2023/03/23 01:38:36;;;;;;;8.48;6.55;;;;;;;12.43;48.00;98679.41;5128349;28;20036;-70
2023/03/23 01:41:03;;;;;;;9.20;6.28;;;;;;;11.99;48.12;98610.84;5128390;28;20044;-70
2023/03/23 01:43:30;;;;;;;9.60;6.60;;;;;;;12.36;48.35;98672.84;5128091;28;20222;-70
2023/03/23 01:45:57;;;;;;;8.70;7.13;;;;;;;12.33;48.31;98671.25;5128338;28;20035;-70
2023/03/23 01:48:30;;;;;;;7.25;6.10;;;;;;;12.27;48.92;98666.38;5128017;28;20043;-70
2023/03/23 01:51:01;;;;;;;7.82;5.97;;;;;;;12.24;48.23;98663.97;5127936;28;20196;-69
2023/03/23 01:53:33;;;;;;;7.80;5.72;;;;;;;12.17;48.68;98663.56;5127178;28;20089;-69
2023/03/23 01:56:02;;;;;;;6.30;5.20;;;;;;;12.11;48.46;98663.13;5126496;28;20049;-70
2023/03/23 01:58:33;;;;;;;8.23;6.30;;;;;;;12.07;48.93;98666.97;5126916;28;20047;-70
2023/03/23 02:01:04;;;;;;;7.25;5.43;;;;;;;12.07;48.76;98666.97;5127042;28;20039;-71
2023/03/23 02:03:33;;;;;;;8.50;5.03;;;;;;;12.08;48.46;98666.00;5126895;28;20042;-69
2023/03/23 02:06:00;;;;;;;7.25;4.82;;;;;;;11.88;48.41;98636.38;5128230;28;20043;-70
2023/03/23 02:08:29;;;;;;;6.20;4.72;;;;;;;12.03;48.60;98668.13;5126764;28;20177;-70
2023/03/23 02:10:57;;;;;;;6.18;4.82;;;;;;;8.55;48.54;98085.81;5126736;28;20031;-70
2023/03/23 02:13:24;;;;;;;6.25;4.57;;;;;;;12.02;48.55;98674.41;5127457;28;20092;-69
2023/03/23 02:16:03;;;;;;;7.78;5.80;;;;;;;11.96;49.30;98673.00;5126651;28;20031;-70
2023/03/23 02:18:44;;;;;;;8.60;5.18;;;;;;;11.94;49.79;98666.97;5127487;28;20035;-70
2023/03/23 02:22:14;;;;;;;9.40;5.57;;;;;;;11.93;50.11;98667.91;5126478;28;20031;-70
2023/03/23 02:25:10;;;;;;;9.10;5.93;;;;;;;11.88;49.78;98668.25;5126481;28;20047;-70
2023/03/23 02:28:07;;;;;;;5.45;4.72;;;;;;;11.87;49.97;98668.34;5126703;28;20035;-70
2023/03/23 02:30:44;;;;;;;6.68;5.43;;;;;;;11.68;49.60;98641.41;5126063;28;20299;-70
2023/03/23 02:33:39;;;;;;;10.02;5.55;;;;;;;11.82;49.80;98671.34;5126273;28;20074;-70
2023/03/23 02:36:14;;;;;;;7.47;5.60;;;;;;;11.64;49.16;98646.09;5127167;28;20067;-70
2023/03/23 02:38:50;;;;;;;6.63;5.40;;;;;;;11.76;49.49;98674.41;5127072;28;20039;-70
2023/03/23 02:41:20;;;;;;;7.05;5.50;;;;;;;11.41;49.20;98615.00;5126887;28;20043;-70
2023/03/23 02:43:50;;;;;;;7.40;6.32;;;;;;;11.71;49.30;98668.59;5127191;28;20043;-71
2023/03/23 02:46:17;;;;;;;8.63;5.90;;;;;;;11.70;49.16;98664.25;5126851;28;20299;-70
2023/03/23 02:48:48;;;;;;;6.45;5.35;;;;;;;11.66;49.70;98673.38;5126548;28;20046;-70
2023/03/23 02:51:16;;;;;;;7.03;5.18;;;;;;;10.63;49.39;98530.25;5125914;28;20116;-70
2023/03/23 02:53:45;;;;;;;6.22;5.28;;;;;;;11.66;49.57;98684.00;5126739;28;20111;-70
2023/03/23 02:56:14;;;;;;;8.77;6.05;;;;;;;11.33;49.33;98626.16;5126689;28;20101;-71
2023/03/23 02:58:42;;;;;;;8.25;6.00;;;;;;;11.62;49.65;98687.81;5126662;28;20106;-70
2023/03/23 03:01:33;;;;;;;6.80;5.65;;;;;;;11.59;50.61;98685.38;5126771;28;20258;-71
2023/03/23 03:04:04;;;;;;;6.28;5.65;;;;;;;11.57;49.80;98681.97;5126156;28;20039;-71
2023/03/23 03:06:39;;;;;;;11.35;5.40;;;;;;;11.55;50.14;98679.44;5126952;28;20066;-70
2023/03/23 03:09:14;;;;;;;6.43;5.03;;;;;;;11.55;49.66;98684.75;5125608;28;20202;-71
2023/03/23 03:11:47;;;;;;;6.38;4.60;;;;;;;8.11;49.67;98122.22;5126420;28;20032;-70
2023/03/23 03:14:20;;;;;;;6.82;5.43;;;;;;;11.53;49.75;98691.09;5125532;28;20085;-70
2023/03/23 03:16:54;;;;;;;7.05;5.07;;;;;;;11.47;50.16;98684.44;5126600;28;20142;-71
2023/03/23 03:19:27;;;;;;;6.38;5.50;;;;;;;11.07;50.25;98620.00;5125795;28;20069;-71
2023/03/23 03:21:57;;;;;;;7.32;5.70;;;;;;;11.45;49.77;98691.63;5126528;28;20111;-70
2023/03/23 03:24:27;;;;;;;6.45;5.57;;;;;;;11.48;49.88;98685.28;5126530;28;20047;-71
2023/03/23 03:26:58;;;;;;;6.60;5.32;;;;;;;10.95;50.00;98636.75;5126454;28;20039;-71
2023/03/23 03:29:30;;;;;;;7.82;5.60;;;;;;;11.43;49.97;98690.91;5125391;28;20081;-70
2023/03/23 03:32:00;;;;;;;7.78;5.60;;;;;;;11.41;50.22;98686.66;5126194;28;20035;-70
2023/03/23 03:34:31;;;;;;;7.28;6.15;;;;;;;11.38;50.07;98694.81;5125720;28;20067;-71
2023/03/23 03:37:00;;;;;;;8.98;6.00;;;;;;;11.27;50.11;98676.16;5126429;28;20081;-71
2023/03/23 03:39:28;;;;;;;10.25;6.20;;;;;;;10.49;50.02;98547.09;5125021;28;20123;-70
2023/03/23 03:41:56;;;;;;;6.45;5.78;;;;;;;11.36;50.13;98694.94;5125984;28;20038;-71
2023/03/23 03:44:23;;;;;;;7.32;6.07;;;;;;;11.34;50.20;98685.38;5125163;28;20053;-70
2023/03/23 03:46:50;;;;;;;6.18;5.57;;;;;;;11.33;50.19;98696.94;5125883;28;20353;-71
2023/03/23 03:49:17;;;;;;;6.07;5.32;;;;;;;11.33;50.24;98691.63;5125417;28;20039;-71
2023/03/23 03:51:45;;;;;;;6.70;5.65;;;;;;;11.31;50.27;98694.41;5109155;28;20093;-71
2023/03/23 03:54:12;;;;;;;6.47;5.22;;;;;;;11.27;50.48;98702.66;5125144;28;20195;-71
2023/03/23 03:56:40;;;;;;;11.25;5.45;;;;;;;10.59;50.46;98595.00;5126249;28;20103;-71
2023/03/23 03:59:09;;;;;;;5.97;4.95;;;;;;;11.21;50.40;98694.19;5126110;28;20047;-70
2023/03/23 04:01:36;;;;;;;5.55;4.80;;;;;;;11.19;50.66;98696.09;5125823;28;20047;-71
2023/03/23 04:04:06;;;;;;;6.50;5.20;;;;;;;11.14;50.69;98695.53;5126166;28;20313;-70
2023/03/23 04:06:35;;;;;;;6.35;5.30;;;;;;;11.14;50.66;98713.25;5124987;28;20049;-71
2023/03/23 04:09:07;;;;;;;6.47;5.05;;;;;;;11.13;50.92;98698.31;5108769;28;20035;-71
2023/03/23 04:11:34;;;;;;;6.28;4.78;;;;;;;11.13;50.77;98706.25;5125995;28;20058;-71
2023/03/23 04:14:02;;;;;;;5.88;4.40;;;;;;;11.11;50.73;98701.06;5124989;28;20043;-70
2023/03/23 04:16:29;;;;;;;7.55;4.82;;;;;;;11.11;50.85;98697.56;5125790;28;20122;-70
2023/03/23 04:18:57;;;;;;;6.82;5.45;;;;;;;11.10;50.69;98701.16;5125747;28;20043;-70
2023/03/23 04:21:28;;;;;;;4.82;4.07;;;;;;;11.09;50.71;98700.31;5125932;28;20046;-70
2023/03/23 04:23:58;;;;;;;8.93;5.75;;;;;;;11.10;51.06;98699.34;5125755;28;20036;-71
2023/03/23 04:26:28;;;;;;;6.15;5.40;;;;;;;11.08;50.99;98695.97;5125644;28;20036;-70
2023/03/23 04:28:55;;;;;;;10.90;6.00;;;;;;;11.07;50.95;98691.59;5126240;28;20063;-70
2023/03/23 04:31:24;;;;;;;6.95;5.45;;;;;;;11.06;50.91;98692.56;5125080;28;20028;-71
2023/03/23 04:33:53;;;;;;;7.72;5.07;;;;;;;10.19;50.83;98550.00;5124619;28;20051;-71
2023/03/23 04:36:22;;;;;;;8.00;5.80;;;;;;;10.85;50.83;98663.03;5108282;28;20234;-71
2023/03/23 04:38:50;;;;;;;6.28;5.57;;;;;;;10.45;50.87;98601.22;5126172;28;20039;-71
2023/03/23 04:41:17;;;;;;;6.82;5.53;;;;;;;11.00;51.15;98692.97;5125753;28;20237;-71
2023/03/23 04:43:45;;;;;;;6.63;5.65;;;;;;;11.02;51.12;98698.19;5125487;28;20110;-71
2023/03/23 04:46:15;;;;;;;6.05;5.20;;;;;;;9.64;50.86;98468.06;5126008;28;20169;-71
2023/03/23 04:48:42;;;;;;;7.18;5.55;;;;;;;10.71;51.13;98649.84;5129320;28;20047;-71
2023/03/23 04:51:09;;;;;;;12.07;5.88;;;;;;;10.62;51.20;98639.00;5128351;28;20054;-71
2023/03/23 04:53:35;;;;;;;6.63;5.53;;;;;;;10.94;51.30;98706.66;5128775;28;20035;-71
2023/03/23 04:56:02;;;;;;;8.02;5.60;;;;;;;10.43;51.13;98612.88;5129279;28;20203;-71
2023/03/23 04:58:33;;;;;;;14.48;8.23;;;;;;;10.92;51.28;98695.28;5129552;28;20043;-71
2023/03/23 05:01:02;;;;;;;7.82;5.15;;;;;;;10.90;51.13;98713.09;5129225;28;20047;-71
2023/03/23 05:03:29;;;;;;;11.02;5.55;;;;;;;10.87;51.31;98706.19;5129282;28;20051;-71
2023/03/23 05:05:56;;;;;;;7.53;5.03;;;;;;;10.40;51.26;98637.78;5111283;28;20040;-71
2023/03/23 05:08:25;;;;;;;9.40;6.05;;;;;;;10.65;51.46;98674.09;5128047;28;20032;-71
2023/03/23 05:10:53;;;;;;;6.78;6.07;;;;;;;10.86;51.33;98708.97;5128768;28;20066;-70
2023/03/23 05:13:20;;;;;;;10.90;6.25;;;;;;;10.85;51.37;98708.09;5128904;27;20040;-71
2023/03/23 05:15:47;;;;;;;7.65;5.20;;;;;;;10.27;51.42;98620.97;5127729;28;20036;-71
2023/03/23 05:18:16;;;;;;;5.55;4.78;;;;;;;10.81;51.41;98721.66;5128613;28;20057;-71
2023/03/23 05:20:43;;;;;;;8.40;5.15;;;;;;;10.86;51.51;98711.59;5127860;28;20042;-70
2023/03/23 05:23:10;;;;;;;11.70;5.00;;;;;;;10.82;51.34;98710.13;5128777;28;20035;-70
2023/03/23 05:25:40;;;;;;;8.57;5.75;;;;;;;10.87;51.45;98726.56;5127527;28;20044;-71
2023/03/23 05:28:07;;;;;;;8.02;5.28;;;;;;;10.86;51.40;98728.38;5128983;28;20036;-71
2023/03/23 05:30:38;;;;;;;8.75;5.53;;;;;;;10.21;51.38;98624.88;5128852;28;20036;-71
2023/03/23 05:33:05;;;;;;;8.52;5.50;;;;;;;10.89;51.44;98748.53;5127743;28;20047;-71
2023/03/23 05:35:33;;;;;;;7.10;5.25;;;;;;;10.31;51.42;98656.91;5127771;28;20217;-70
2023/03/23 05:38:01;;;;;;;7.65;5.47;;;;;;;10.90;51.36;98740.47;5128440;28;20032;-70
2023/03/23 05:40:29;;;;;;;8.30;6.35;;;;;;;10.93;51.41;98735.91;5128161;28;20035;-71
2023/03/23 05:42:58;;;;;;;9.25;6.53;;;;;;;9.98;51.33;98590.25;5127304;28;20043;-71
2023/03/23 05:45:26;;;;;;;9.43;8.45;;;;;;;10.48;51.51;98677.84;5128148;28;20039;-70
2023/03/23 05:47:53;;;;;;;12.32;8.32;;;;;;;10.90;51.53;98752.88;5128321;28;20040;-71
2023/03/23 05:50:21;;;;;;;10.05;7.80;;;;;;;10.75;51.47;98716.75;5127384;28;20039;-71
2023/03/23 05:52:50;;;;;;;10.57;6.47;;;;;;;10.97;51.40;98745.38;5127910;28;20039;-71
2023/03/23 05:55:17;;;;;;;7.40;5.90;;;;;;;10.79;51.46;98720.91;5110302;28;20122;-71
2023/03/23 05:57:44;;;;;;;6.45;5.55;;;;;;;10.19;51.58;98610.03;5127252;28;20047;-71
2023/03/23 06:00:19;;;;;;;6.85;5.80;;;;;;;10.66;51.34;98690.84;5127518;28;20031;-71
2023/03/23 06:02:47;;;;;;;9.82;6.75;;;;;;;11.05;51.38;98757.16;5128268;28;20044;-71
2023/03/23 06:05:15;;;;;;;7.53;5.70;;;;;;;11.08;51.28;98756.94;5127681;28;20040;-71
2023/03/23 06:07:43;;;;;;;7.20;5.95;;;;;;;11.15;51.36;98757.38;5127777;28;20063;-71
2023/03/23 06:10:11;;;;;;;8.02;5.40;;;;;;;11.18;51.45;98762.50;5127571;28;20054;-71
2023/03/23 06:12:42;;;;;;;7.72;5.70;;;;;;;11.18;51.17;98757.19;5126729;28;20332;-71
2023/03/23 06:15:10;;;;;;;7.63;5.28;;;;;;;9.50;51.22;98482.19;5127805;28;20275;-71
2023/03/23 06:17:38;;;;;;;10.00;6.45;;;;;;;11.13;51.33;98765.44;5128012;28;20122;-71
2023/03/23 06:20:09;;;;;;;7.97;5.95;;;;;;;11.10;51.32;98763.00;5126852;28;20234;-71
2023/03/23 06:22:37;;;;;;;8.77;6.00;;;;;;;11.08;51.55;98772.00;5110184;28;20081;-71
2023/03/23 06:25:06;;;;;;;11.27;7.15;;;;;;;11.04;51.35;98771.38;5127640;28;20047;-70
2023/03/23 06:27:35;;;;;;;10.10;7.63;;;;;;;10.28;51.58;98649.16;5127594;28;20043;-70
2023/03/23 06:30:02;;;;;;;12.85;8.82;;;;;;;10.34;51.52;98651.41;5127371;28;20031;-71
2023/03/23 06:32:31;;;;;;;14.55;6.93;;;;;;;11.13;51.46;98765.44;5126568;28;20074;-71
2023/03/23 06:34:58;;;;;;;10.02;6.90;;;;;;;11.07;51.65;98749.94;5126947;28;20035;-71
2023/03/23 06:37:25;;;;;;;8.88;6.28;;;;;;;10.78;51.29;98684.75;5126319;28;20032;-71
2023/03/23 06:39:52;;;;;;;15.27;6.53;;;;;;;11.46;51.11;98756.16;5127442;27;20039;-71
2023/03/23 06:42:19;;;;;;;10.00;6.20;;;;;;;11.57;50.67;98727.09;5125860;28;20051;-70
2023/03/23 06:44:47;;;;;;;9.45;6.93;;;;;;;11.78;50.11;98714.13;5126345;28;20070;-71
2023/03/23 06:47:15;;;;;;;9.10;6.43;;;;;;;12.15;49.75;98752.25;5126830;28;20036;-70
2023/03/23 06:49:44;;;;;;;15.10;6.47;;;;;;;10.04;49.89;98380.72;5127072;28;20246;-71
2023/03/23 06:52:10;;;;;;;10.55;6.60;;;;;;;12.40;49.73;98752.22;5109504;28;20288;-71
2023/03/23 06:54:37;;;;;;;9.60;6.38;;;;;;;12.46;49.52;98758.91;5108592;28;20066;-71
2023/03/23 06:57:04;;;;;;;8.63;6.38;;;;;;;12.49;49.56;98761.34;5126924;28;20102;-71
2023/03/23 06:59:31;;;;;;;9.73;6.65;;;;;;;12.49;49.64;98758.69;5126027;28;20035;-71
2023/03/23 07:02:00;;;;;;;12.50;7.60;;;;;;;12.15;49.75;98707.94;5126324;28;20039;-71
2023/03/23 07:04:27;;;;;;;14.07;7.97;;;;;;;12.47;49.51;98764.13;5125646;28;20051;-71
2023/03/23 07:06:54;;;;;;;7.97;6.95;;;;;;;12.51;49.54;98768.25;5126968;28;20110;-71
2023/03/23 07:09:21;;;;;;;10.05;8.02;;;;;;;12.59;49.44;98766.84;5126051;28;20062;-71
2023/03/23 07:11:48;;;;;;;8.73;7.75;;;;;;;11.07;49.55;98510.44;5126666;28;20057;-71
2023/03/23 07:14:14;;;;;;;10.07;6.75;;;;;;;12.59;49.47;98767.69;5125220;28;20039;-70
2023/03/23 07:16:42;;;;;;;7.38;6.53;;;;;;;12.56;49.33;98765.25;5126599;28;20043;-71
2023/03/23 07:19:11;;;;;;;7.45;6.38;;;;;;;12.58;49.55;98786.41;5125538;28;20070;-71
2023/03/23 07:21:37;;;;;;;11.18;7.35;;;;;;;12.54;49.45;98774.31;5125310;28;20039;-71
2023/03/23 07:24:04;;;;;;;6.93;6.32;;;;;;;12.50;49.26;98771.88;5126287;28;20044;-71
2023/03/23 07:26:32;;;;;;;6.93;6.22;;;;;;;12.41;49.69;98764.56;5109219;28;20149;-71
2023/03/23 07:28:59;;;;;;;6.57;5.88;;;;;;;12.51;49.61;98765.59;5126623;28;20062;-71
2023/03/23 07:31:26;;;;;;;7.57;6.32;;;;;;;12.52;49.58;98775.25;5126160;28;20036;-71
2023/03/23 07:33:53;;;;;;;7.25;6.55;;;;;;;12.45;49.60;98760.72;5126119;28;20121;-72
2023/03/23 07:36:22;;;;;;;8.20;6.28;;;;;;;12.57;49.47;98782.06;5125283;28;20040;-71
2023/03/23 07:38:49;;;;;;;12.40;6.95;;;;;;;12.59;49.40;98785.44;5125220;28;20278;-71
2023/03/23 07:41:17;;;;;;;9.68;6.35;;;;;;;12.58;49.19;98778.44;5125975;28;20279;-71
2023/03/23 07:43:44;;;;;;;8.32;6.20;;;;;;;12.59;49.22;98772.16;5126591;28;20117;-71
2023/03/23 07:46:11;;;;;;;7.35;6.55;;;;;;;12.64;49.34;98778.00;5125392;28;20323;-71
2023/03/23 07:48:38;;;;;;;7.93;5.65;;;;;;;12.64;49.26;98772.66;5124736;28;20052;-71
2023/03/23 07:51:06;;;;;;;11.48;6.32;;;;;;;12.52;49.20;98731.88;5126102;28;20291;-71
2023/03/23 07:53:35;;;;;;;12.50;6.90;;;;;;;12.73;48.73;98748.06;5125423;28;20070;-71
2023/03/23 07:56:03;;;;;;;12.45;6.63;;;;;;;12.86;48.94;98772.81;5125600;28;20039;-70
2023/03/23 07:58:30;;;;;;;8.00;6.65;;;;;;;12.90;48.65;98779.59;5125441;28;20114;-70
2023/03/23 08:00:57;;;;;;;9.05;7.10;;;;;;;11.91;48.69;98610.56;5125927;28;20036;-71
2023/03/23 08:03:24;;;;;;;9.15;6.63;;;;;;;12.96;48.62;98781.78;5125576;28;20085;-71
2023/03/23 08:05:51;;;;;;;13.77;6.78;;;;;;;13.01;48.73;98784.13;5124471;28;20055;-70
2023/03/23 08:08:18;;;;;;;9.85;7.93;;;;;;;13.07;48.74;98779.19;5126332;28;20074;-70
2023/03/23 08:10:46;;;;;;;9.75;8.32;;;;;;;12.46;48.48;98658.75;5125679;28;20092;-70
2023/03/23 08:13:14;;;;;;;9.93;7.32;;;;;;;12.89;48.40;98713.22;5125865;28;20284;-71
2023/03/23 08:15:41;;;;;;;8.57;6.68;;;;;;;13.27;48.12;98761.72;5125656;28;20043;-71
2023/03/23 08:18:08;;;;;;;10.73;8.27;;;;;;;13.33;48.12;98771.91;5125707;28;20063;-71
2023/03/23 08:20:35;;;;;;;11.02;8.73;;;;;;;13.37;48.33;98772.53;5125825;28;20031;-71
2023/03/23 08:23:03;;;;;;;10.07;8.02;;;;;;;13.42;48.29;98760.59;5129389;28;20107;-71
2023/03/23 08:25:32;;;;;;;11.07;9.00;;;;;;;13.22;48.24;98728.44;5128764;28;20059;-71
2023/03/23 08:28:01;;;;;;;13.45;9.40;;;;;;;12.95;48.13;98688.81;5128530;28;20044;-71
2023/03/23 08:30:29;;;;;;;10.77;8.52;;;;;;;13.45;48.14;98779.00;5129537;28;20051;-71
2023/03/23 08:32:57;;;;;;;9.65;8.15;;;;;;;13.49;48.02;98782.28;5128342;28;20051;-71
2023/03/23 08:35:24;;;;;;;11.52;9.35;;;;;;;13.51;48.14;98775.03;5128550;28;20048;-70
2023/03/23 08:37:52;;;;;;;9.73;8.55;;;;;;;13.55;48.10;98784.47;5128890;28;20131;-72
2023/03/23 08:40:22;;;;;;;11.95;9.50;;;;;;;13.60;48.02;98770.81;5128278;28;20242;-72
2023/03/23 08:42:50;;;;;;;16.63;9.15;;;;;;;13.69;47.90;98778.09;5128249;28;20039;-73
2023/03/23 08:45:20;;;;;;;15.10;9.95;;;;;;;13.80;47.89;98776.28;5129295;28;20059;-70
2023/03/23 08:47:51;;;;;;;13.52;10.60;;;;;;;14.02;47.76;98777.28;5127963;28;20048;-71
2023/03/23 08:50:21;;;;;;;15.27;10.05;;;;;;;13.93;47.58;98719.41;5129265;28;20365;-71
2023/03/23 08:52:48;;;;;;;14.45;10.63;;;;;;;14.58;47.29;98778.13;5128416;28;20059;-70
2023/03/23 08:55:17;;;;;;;13.88;11.35;;;;;;;12.45;46.34;98359.44;5129404;28;20043;-71
2023/03/23 08:57:45;;;;;;;15.05;10.23;;;;;;;15.42;45.50;98789.06;5130011;28;20241;-71
2023/03/23 09:00:17;;;;;;;15.05;9.80;;;;;;;15.80;45.28;98777.84;5129099;28;20345;-71
2023/03/23 09:02:47;;;;;;;15.82;9.77;;;;;;;16.10;44.26;98766.31;5128279;28;20043;-71
2023/03/23 09:05:15;;;;;;;17.23;10.90;;;;;;;16.36;44.21;98759.53;5111350;28;20376;-71
2023/03/23 09:07:45;;;;;;;13.38;9.52;;;;;;;16.63;43.54;98762.44;5128249;28;20207;-71
2023/03/23 09:10:13;;;;;;;12.35;9.73;;;;;;;16.85;43.04;98772.09;5128579;28;20042;-71
2023/03/23 09:12:40;;;;;;;13.20;9.75;;;;;;;17.06;42.78;98766.63;5128627;28;20032;-71
2023/03/23 09:15:09;;;;;;;13.90;8.00;;;;;;;17.03;42.30;98729.41;5128547;28;20043;-71
2023/03/23 09:17:39;;;;;;;12.63;8.80;;;;;;;17.45;42.15;98764.81;5110926;28;20043;-71
2023/03/23 09:20:11;;;;;;;16.85;8.60;;;;;;;17.52;41.16;98740.97;5128187;28;20035;-72
2023/03/23 09:22:39;;;;;;;13.75;9.15;;;;;;;17.92;41.73;98764.91;5128497;27;20101;-72
2023/03/23 09:25:07;;;;;;;12.75;9.30;;;;;;;18.17;41.46;98760.75;5128585;28;20047;-72
2023/03/23 09:27:34;;;;;;;11.35;9.10;;;;;;;18.41;41.09;98753.00;5127912;28;20355;-72
2023/03/23 09:30:01;;;;;;;13.13;9.75;;;;;;;18.58;40.79;98754.94;5127739;28;20195;-72
2023/03/23 09:32:28;;;;;;;11.27;8.77;;;;;;;18.74;40.33;98750.75;5127500;28;20040;-72
2023/03/23 09:34:56;;;;;;;11.05;8.63;;;;;;;18.96;40.09;98742.25;5127861;28;20036;-72
2023/03/23 09:37:24;;;;;;;13.15;8.88;;;;;;;19.19;39.39;98762.28;5128515;28;20107;-72
2023/03/23 09:39:51;;;;;;;11.75;9.05;;;;;;;19.34;39.21;98757.22;5127584;28;20039;-71
2023/03/23 09:42:42;;;;;;;12.45;8.93;;;;;;;19.50;36.79;98749.31;5127434;28;20334;-72
2023/03/23 09:45:20;;;;;;;23.67;8.60;;;;;;;19.24;37.88;98686.59;5127373;28;20127;-72
2023/03/23 09:48:00;;;;;;;18.25;8.40;;;;;;;19.48;38.05;98729.81;5110369;28;20039;-72
2023/03/23 09:50:32;;;;;;;9.60;7.93;;;;;;;19.64;38.35;98734.47;5127121;28;20211;-72
2023/03/23 09:53:06;;;;;;;10.38;7.70;;;;;;;19.91;37.95;98748.81;5110116;28;20342;-71
2023/03/23 09:55:33;;;;;;;11.82;7.75;;;;;;;20.02;38.17;98748.53;5128133;28;20046;-71
2023/03/23 09:58:03;;;;;;;15.55;7.20;;;;;;;20.06;37.98;98737.31;5127166;28;20101;-72
2023/03/23 10:00:35;;;;;;;12.63;9.70;;;;;;;19.34;37.47;98625.56;5128186;28;20298;-72
2023/03/23 10:03:08;;;;;;;9.90;6.22;;;;;;;20.17;36.99;98723.56;5126879;28;20042;-72
2023/03/23 10:05:37;;;;;;;11.40;7.40;;;;;;;20.36;37.53;98727.91;5110745;28;20096;-72
2023/03/23 10:08:12;;;;;;;13.35;7.13;;;;;;;20.64;36.03;98731.19;5127681;28;20049;-72
2023/03/23 10:10:49;;;;;;;12.52;8.65;;;;;;;20.62;35.18;98740.44;5127548;28;20077;-72
2023/03/23 10:13:24;;;;;;;9.80;6.65;;;;;;;20.67;35.45;98730.03;5127078;28;20046;-72
2023/03/23 10:15:53;;;;;;;8.75;7.10;;;;;;;20.66;36.56;98731.88;5127887;28;20335;-72
2023/03/23 10:18:30;;;;;;;12.40;7.10;;;;;;;20.67;35.26;98727.34;5127796;28;20065;-72
2023/03/23 10:20:59;;;;;;;8.45;7.07;;;;;;;20.72;36.25;98728.53;5126647;28;20085;-72
2023/03/23 10:23:58;;;;;;;15.43;7.68;;;;;;;20.91;34.06;98713.09;5127535;28;20039;-72
2023/03/23 10:26:36;;;;;;;7.82;6.85;;;;;;;20.96;34.41;98691.88;5111075;28;20367;-72
2023/03/23 10:29:17;;;;;;;11.95;6.88;;;;;;;20.90;34.16;98671.84;5126670;28;20047;-72
2023/03/23 10:31:49;;;;;;;10.60;6.78;;;;;;;21.20;35.52;98716.19;5126111;28;20088;-71
2023/03/23 10:34:23;;;;;;;9.25;6.70;;;;;;;21.21;34.84;98707.09;5126638;28;20055;-72
2023/03/23 10:36:58;;;;;;;10.18;7.68;;;;;;;21.24;35.18;98708.59;5127151;28;20050;-72
2023/03/23 10:39:31;;;;;;;15.20;9.00;;;;;;;21.05;34.50;98680.13;5126846;28;20065;-71
2023/03/23 10:42:06;;;;;;;20.20;8.30;;;;;;;21.09;35.43;98681.50;5127127;28;20047;-72
2023/03/23 10:44:34;;;;;;;11.73;7.50;;;;;;;21.26;35.60;98695.81;5125720;28;20036;-72
2023/03/23 10:47:05;;;;;;;8.82;7.25;;;;;;;21.33;34.69;98696.81;5126698;28;20035;-72
2023/03/23 10:49:38;;;;;;;14.18;7.65;;;;;;;20.83;34.96;98606.19;5125939;28;20050;-72
2023/03/23 10:52:14;;;;;;;14.35;7.35;;;;;;;21.58;34.72;98693.09;5108954;28;20048;-72
2023/03/23 10:54:52;;;;;;;11.40;7.85;;;;;;;21.26;33.08;98613.13;5125466;28;20122;-72
2023/03/23 10:57:25;;;;;;;11.82;7.28;;;;;;;21.73;33.62;98674.38;5125283;28;20047;-72
2023/03/23 10:59:52;;;;;;;12.35;6.90;;;;;;;21.81;34.83;98676.22;5125603;28;20043;-72
2023/03/23 11:02:25;;;;;;;18.10;8.45;;;;;;;21.85;34.52;98680.28;5126149;28;20100;-72
2023/03/23 11:05:03;;;;;;;11.13;8.38;;;;;;;21.48;33.52;98605.31;5126491;28;20032;-72
2023/03/23 11:07:34;;;;;;;8.57;7.55;;;;;;;21.12;34.13;98546.44;5126457;28;20039;-72
2023/03/23 11:10:16;;;;;;;10.57;7.57;;;;;;;21.92;33.06;98674.00;5125879;28;20042;-72
2023/03/23 11:12:46;;;;;;;10.05;7.47;;;;;;;21.77;33.64;98637.94;5126531;28;20151;-72
2023/03/23 11:15:26;;;;;;;8.38;7.18;;;;;;;22.02;32.95;98674.66;5125272;28;20200;-72
2023/03/23 11:18:00;;;;;;;28.70;8.80;;;;;;;22.05;33.77;98678.84;5125495;28;20035;-71
2023/03/23 11:20:29;;;;;;;10.70;7.82;;;;;;;22.10;34.25;98666.53;5126306;28;20061;-72
2023/03/23 11:22:56;;;;;;;11.18;9.05;;;;;;;21.45;34.43;98542.66;5125170;28;20047;-72
2023/03/23 11:25:26;;;;;;;12.10;8.63;;;;;;;22.10;33.75;98623.34;5126049;28;20081;-72
2023/03/23 11:27:55;;;;;;;9.88;7.35;;;;;;;22.44;33.93;98656.44;5125127;28;20047;-72
2023/03/23 11:30:27;;;;;;;9.05;7.97;;;;;;;22.41;33.15;98663.03;5125269;28;20211;-72
2023/03/23 11:32:56;;;;;;;8.65;6.97;;;;;;;22.00;33.56;98584.94;5124923;28;20122;-72
2023/03/23 11:35:27;;;;;;;17.63;8.18;;;;;;;22.32;33.66;98631.69;5108129;28;20078;-72
2023/03/23 11:37:56;;;;;;;7.05;5.90;;;;;;;22.49;33.43;98649.50;5125020;28;20253;-72
2023/03/23 11:40:27;;;;;;;6.78;5.15;;;;;;;20.23;33.31;98274.69;5125966;28;20043;-72
2023/03/23 11:43:02;;;;;;;7.45;4.82;;;;;;;22.55;32.05;98648.00;5124976;28;20042;-72